createdAt,value
2022-12-07T00:02:20.063Z,10.20
2022-12-07T00:07:23.665Z,9.90
2022-12-07T00:09:57.589Z,9.70
2022-12-07T00:15:00.654Z,9.90
2022-12-07T00:17:30.792Z,11.20
2022-12-07T00:20:01.271Z,9.80
2022-12-07T00:22:31.681Z,9.80
2022-12-07T00:25:01.902Z,9.80
2022-12-07T00:27:32.028Z,9.70
2022-12-07T00:30:04.904Z,9.70
2022-12-07T00:32:35.133Z,9.60
2022-12-07T00:35:05.237Z,9.60
2022-12-07T00:37:35.336Z,9.60
2022-12-07T00:40:05.346Z,10.90
2022-12-07T00:42:35.447Z,9.60
2022-12-07T00:45:08.839Z,9.70
2022-12-07T00:47:38.920Z,9.70
2022-12-07T00:50:10.354Z,9.70
2022-12-07T00:52:40.230Z,9.80
2022-12-07T00:55:13.546Z,9.80
2022-12-07T00:57:43.747Z,9.80
2022-12-07T01:00:19.729Z,10.10
2022-12-07T01:02:56.325Z,9.70
2022-12-07T01:05:26.420Z,9.70
2022-12-07T01:07:56.574Z,9.80
2022-12-07T01:10:26.740Z,9.80
2022-12-07T01:12:57.209Z,9.70
2022-12-07T01:15:30.307Z,10.80
2022-12-07T01:18:00.417Z,9.60
2022-12-07T01:20:30.409Z,9.10
2022-12-07T01:23:00.635Z,9.50
2022-12-07T01:25:30.804Z,9.90
2022-12-07T01:28:00.913Z,9.30
2022-12-07T01:30:33.546Z,8.50
2022-12-07T01:33:03.704Z,9.30
2022-12-07T01:35:33.684Z,10.00
2022-12-07T01:38:03.848Z,9.10
2022-12-07T01:40:36.927Z,9.10
2022-12-07T01:43:17.575Z,10.00
2022-12-07T01:45:50.355Z,9.00
2022-12-07T01:48:23.049Z,8.60
2022-12-07T01:50:55.710Z,9.00
2022-12-07T01:53:27.698Z,9.00
2022-12-07T01:55:59.613Z,9.00
2022-12-07T01:58:30.312Z,9.10
2022-12-07T02:01:03.362Z,9.00
2022-12-07T02:03:40.001Z,9.10
2022-12-07T02:06:11.659Z,9.50
2022-12-07T02:08:41.866Z,9.30
2022-12-07T02:11:13.132Z,8.10
2022-12-07T02:13:45.111Z,9.30
2022-12-07T02:16:29.865Z,10.90
2022-12-07T02:19:17.544Z,9.40
2022-12-07T02:21:55.059Z,9.80
2022-12-07T02:24:49.696Z,9.50
2022-12-07T02:27:41.347Z,9.30
2022-12-07T02:30:15.878Z,9.40
2022-12-07T02:32:52.715Z,9.40
2022-12-07T02:35:27.310Z,9.10
2022-12-07T02:38:06.797Z,9.40
2022-12-07T02:40:42.197Z,9.40
2022-12-07T02:43:16.397Z,9.90
2022-12-07T02:45:51.367Z,9.40
2022-12-07T02:48:23.509Z,10.80
2022-12-07T02:50:54.682Z,8.60
2022-12-07T02:53:36.461Z,9.60
2022-12-07T02:56:13.229Z,9.90
2022-12-07T02:58:54.983Z,9.50
2022-12-07T03:01:36.663Z,9.40
2022-12-07T03:04:24.978Z,9.40
2022-12-07T03:07:00.570Z,9.40
2022-12-07T03:09:36.474Z,9.30
2022-12-07T03:12:15.328Z,7.50
2022-12-07T03:14:53.962Z,9.30
2022-12-07T03:17:32.415Z,9.00
2022-12-07T03:20:04.436Z,9.40
2022-12-07T03:22:38.111Z,9.00
2022-12-07T03:25:12.449Z,8.90
2022-12-07T03:27:47.688Z,8.90
2022-12-07T03:30:21.506Z,8.90
2022-12-07T03:32:59.495Z,9.90
2022-12-07T03:35:31.139Z,8.90
2022-12-07T03:38:04.423Z,7.40
2022-12-07T03:40:48.561Z,8.80
2022-12-07T03:43:18.710Z,8.80
2022-12-07T03:46:00.269Z,8.90
2022-12-07T03:48:39.371Z,9.20
2022-12-07T03:51:22.898Z,8.80
2022-12-07T03:53:58.870Z,9.00
2022-12-07T03:56:31.023Z,9.00
2022-12-07T03:59:01.202Z,8.90
2022-12-07T04:01:32.069Z,8.90
2022-12-07T04:04:04.925Z,9.00
2022-12-07T04:06:35.068Z,8.80
2022-12-07T04:09:05.198Z,8.80
2022-12-07T04:11:35.285Z,8.80
2022-12-07T04:14:18.137Z,8.90
2022-12-07T04:16:48.473Z,9.40
2022-12-07T04:19:22.583Z,8.90
2022-12-07T04:21:52.605Z,9.50
2022-12-07T04:24:22.801Z,9.10
2022-12-07T04:26:53.113Z,9.20
2022-12-07T04:31:54.110Z,8.20
2022-12-07T04:34:27.105Z,9.10
2022-12-07T04:36:57.534Z,9.30
2022-12-07T04:39:29.094Z,8.90
2022-12-07T04:42:00.076Z,9.50
2022-12-07T04:44:31.922Z,9.40
2022-12-07T04:47:02.031Z,9.90
2022-12-07T04:49:35.032Z,9.30
2022-12-07T04:52:05.122Z,9.50
2022-12-07T04:54:35.284Z,8.30
2022-12-07T04:57:05.383Z,9.60
2022-12-07T04:59:43.786Z,9.60
2022-12-07T05:02:15.936Z,9.60
2022-12-07T05:04:48.948Z,9.60
2022-12-07T05:07:18.986Z,10.00
2022-12-07T05:09:49.136Z,9.60
2022-12-07T05:12:19.338Z,8.00
2022-12-07T05:14:49.472Z,9.20
2022-12-07T05:17:19.723Z,9.60
2022-12-07T05:19:52.587Z,9.60
2022-12-07T05:22:22.704Z,9.60
2022-12-07T05:24:53.111Z,9.60
2022-12-07T05:29:54.589Z,9.60
2022-12-07T05:32:24.631Z,9.60
2022-12-07T05:34:57.693Z,9.60
2022-12-07T05:37:28.218Z,9.60
2022-12-07T05:39:58.618Z,9.60
2022-12-07T05:42:40.647Z,10.10
2022-12-07T05:45:14.315Z,9.60
2022-12-07T05:53:27.316Z,9.60
2022-12-07T05:55:59.027Z,9.60
2022-12-07T05:58:41.447Z,10.80
2022-12-07T06:03:47.751Z,9.40
2022-12-07T06:06:20.572Z,9.70
2022-12-07T06:08:50.701Z,9.70
2022-12-07T06:11:33.408Z,9.90
2022-12-07T06:14:03.418Z,9.80
2022-12-07T06:16:33.662Z,10.00
2022-12-07T06:19:03.791Z,9.80
2022-12-07T06:21:36.650Z,9.70
2022-12-07T06:26:37.496Z,9.70
2022-12-07T06:29:07.578Z,8.00
2022-12-07T06:31:38.928Z,9.70
2022-12-07T06:34:12.723Z,9.70
2022-12-07T06:36:45.656Z,9.30
2022-12-07T06:39:16.322Z,9.60
2022-12-07T06:41:46.395Z,9.60
2022-12-07T06:44:16.948Z,8.90
2022-12-07T06:46:47.091Z,9.30
2022-12-07T06:49:17.272Z,9.30
2022-12-07T06:52:02.388Z,9.20
2022-12-07T06:54:32.530Z,9.20
2022-12-07T06:59:32.852Z,8.80
2022-12-07T07:02:02.989Z,9.00
2022-12-07T07:04:33.032Z,8.80
2022-12-07T07:07:06.014Z,8.90
2022-12-07T07:12:06.893Z,8.80
2022-12-07T07:14:37.615Z,9.30
2022-12-07T07:17:08.482Z,8.90
2022-12-07T07:19:38.977Z,9.20
2022-12-07T07:22:11.643Z,8.90
2022-12-07T07:24:45.046Z,8.90
2022-12-07T07:27:17.955Z,9.00
2022-12-07T07:29:48.061Z,9.80
2022-12-07T07:32:18.205Z,8.30
2022-12-07T07:34:48.258Z,8.90
2022-12-07T07:37:27.183Z,7.70
2022-12-07T07:40:06.191Z,8.70
2022-12-07T07:42:36.426Z,9.00
2022-12-07T07:45:07.161Z,9.10
2022-12-07T07:47:37.304Z,9.10
2022-12-07T07:50:08.225Z,9.10
2022-12-07T07:52:43.867Z,9.20
2022-12-07T07:55:16.494Z,9.40
2022-12-07T07:57:52.826Z,9.20
2022-12-07T08:00:25.917Z,9.50
2022-12-07T08:02:56.186Z,9.70
2022-12-07T08:05:26.739Z,9.70
2022-12-07T08:07:59.477Z,9.80
2022-12-07T08:13:23.787Z,9.90
2022-12-07T08:16:00.510Z,10.10
2022-12-07T08:18:45.432Z,10.80
2022-12-07T08:21:25.139Z,10.50
2022-12-07T08:23:57.950Z,10.60
2022-12-07T08:26:28.187Z,10.80
2022-12-07T08:28:58.280Z,11.10
2022-12-07T08:31:30.993Z,11.30
2022-12-07T08:34:01.327Z,11.40
2022-12-07T08:36:33.886Z,11.30
2022-12-07T08:39:30.994Z,11.30
2022-12-07T08:41:59.233Z,10.70
2022-12-07T08:44:29.655Z,11.30
2022-12-07T08:47:04.473Z,11.10
2022-12-07T08:49:38.542Z,11.20
2022-12-07T08:52:09.556Z,11.00
2022-12-07T08:54:44.345Z,11.40
2022-12-07T08:57:15.285Z,11.60
2022-12-07T08:59:45.730Z,11.90
2022-12-07T09:04:46.310Z,12.20
2022-12-07T09:07:16.584Z,12.70
2022-12-07T09:09:49.262Z,12.80
2022-12-07T09:12:19.483Z,12.60
2022-12-07T09:14:49.566Z,12.50
2022-12-07T09:17:20.007Z,12.20
2022-12-07T09:19:50.333Z,12.30
2022-12-07T09:22:20.509Z,12.10
2022-12-07T09:24:53.121Z,12.30
2022-12-07T09:27:23.374Z,12.50
2022-12-07T09:29:53.441Z,12.70
2022-12-07T09:32:24.134Z,12.80
2022-12-07T09:34:54.284Z,12.80
2022-12-07T09:37:24.354Z,12.90
2022-12-07T09:39:57.034Z,12.90
2022-12-07T09:42:33.391Z,12.80
2022-12-07T09:45:04.619Z,12.80
2022-12-07T09:47:35.205Z,12.70
2022-12-07T09:50:14.771Z,12.80
2022-12-07T09:52:46.929Z,12.80
2022-12-07T09:55:23.539Z,12.90
2022-12-07T09:57:53.709Z,13.40
2022-12-07T10:00:26.589Z,13.60
2022-12-07T10:03:00.219Z,13.80
2022-12-07T10:05:33.947Z,12.40
2022-12-07T10:08:04.373Z,14.00
2022-12-07T10:10:39.835Z,13.90
2022-12-07T10:13:12.613Z,13.70
2022-12-07T10:15:49.571Z,13.40
2022-12-07T10:18:31.357Z,13.20
2022-12-07T10:21:13.812Z,13.00
2022-12-07T10:23:45.588Z,12.80
2022-12-07T10:26:34.673Z,12.30
2022-12-07T10:29:16.459Z,12.50
2022-12-07T10:32:25.987Z,12.40
2022-12-07T10:35:23.090Z,12.30
2022-12-07T10:37:57.226Z,12.40
2022-12-07T10:40:38.726Z,12.50
2022-12-07T10:43:22.352Z,12.50
2022-12-07T10:46:27.379Z,12.60
2022-12-07T10:49:11.363Z,12.40
2022-12-07T10:51:50.618Z,12.30
2022-12-07T10:54:30.377Z,12.20
2022-12-07T10:57:14.378Z,12.70
2022-12-07T11:00:05.055Z,12.90
2022-12-07T11:02:45.963Z,13.10
2022-12-07T11:05:23.685Z,13.10
2022-12-07T11:07:59.646Z,12.90
2022-12-07T11:10:40.857Z,12.90
2022-12-07T11:13:29.336Z,12.80
2022-12-07T11:16:31.651Z,12.70
2022-12-07T11:19:25.127Z,12.60
2022-12-07T11:22:01.406Z,12.60
2022-12-07T11:24:40.476Z,12.60
2022-12-07T11:27:23.856Z,12.60
2022-12-07T11:30:12.273Z,12.70
2022-12-07T11:32:57.739Z,12.70
2022-12-07T11:35:37.146Z,12.80
2022-12-07T11:38:19.947Z,12.90
2022-12-07T11:40:53.799Z,12.90
2022-12-07T11:43:30.419Z,12.90
2022-12-07T11:46:07.292Z,12.60
2022-12-07T11:48:45.620Z,12.70
2022-12-07T11:51:18.490Z,12.80
2022-12-07T11:53:53.743Z,12.80
2022-12-07T11:56:26.828Z,12.70
2022-12-07T11:59:02.193Z,12.50
2022-12-07T12:01:49.799Z,12.30
2022-12-07T12:04:33.118Z,13.00
2022-12-07T12:09:57.486Z,11.90
2022-12-07T12:16:16.732Z,11.90
2022-12-07T12:19:10.508Z,12.00
2022-12-07T12:21:43.951Z,12.00
2022-12-07T12:24:20.016Z,12.10
2022-12-07T12:26:56.540Z,12.00
2022-12-07T12:29:32.296Z,12.10
2022-12-07T12:32:18.485Z,12.10
2022-12-07T12:35:04.691Z,12.20
2022-12-07T12:37:49.736Z,12.30
2022-12-07T12:40:51.216Z,12.50
2022-12-07T12:43:47.284Z,12.60
2022-12-07T12:46:53.596Z,12.70
2022-12-07T12:49:47.936Z,12.80
2022-12-07T12:52:59.666Z,12.80
2022-12-07T12:56:07.976Z,12.80
2022-12-07T12:58:47.376Z,12.90
2022-12-07T13:01:41.172Z,12.50
2022-12-07T13:04:29.692Z,12.50
2022-12-07T13:07:00.182Z,12.50
2022-12-07T13:09:33.893Z,12.50
2022-12-07T13:12:15.108Z,12.40
2022-12-07T13:15:31.505Z,12.30
2022-12-07T13:18:23.878Z,12.20
2022-12-07T13:20:56.815Z,11.80
2022-12-07T13:23:34.340Z,12.10
2022-12-07T13:26:17.871Z,11.90
2022-12-07T13:28:52.410Z,12.30
2022-12-07T13:31:47.152Z,12.30
2022-12-07T13:34:33.505Z,12.40
2022-12-07T13:37:06.163Z,12.30
2022-12-07T13:39:38.716Z,12.40
2022-12-07T13:42:22.799Z,12.40
2022-12-07T13:44:55.814Z,12.50
2022-12-07T13:47:35.864Z,12.50
2022-12-07T13:50:24.648Z,11.50
2022-12-07T13:52:59.015Z,12.40
2022-12-07T13:55:30.478Z,12.50
2022-12-07T13:58:00.864Z,12.40
2022-12-07T14:00:34.149Z,12.30
2022-12-07T14:03:06.396Z,12.30
2022-12-07T14:05:38.018Z,11.30
2022-12-07T14:08:17.569Z,12.30
2022-12-07T14:11:00.429Z,12.20
2022-12-07T14:13:35.990Z,12.10
2022-12-07T14:16:22.057Z,12.10
2022-12-07T14:18:52.227Z,12.00
2022-12-07T14:21:24.440Z,11.90
2022-12-07T14:24:14.514Z,11.90
2022-12-07T14:26:44.789Z,11.40
2022-12-07T14:29:35.536Z,11.80
2022-12-07T14:32:29.416Z,11.70
2022-12-07T14:35:02.066Z,11.70
2022-12-07T14:37:34.002Z,11.70
2022-12-07T14:40:04.241Z,11.70
2022-12-07T14:42:35.302Z,11.50
2022-12-07T14:45:05.573Z,11.40
2022-12-07T14:50:28.648Z,11.40
2022-12-07T14:55:52.994Z,11.40
2022-12-07T14:58:23.340Z,11.40
2022-12-07T15:00:53.526Z,11.40
2022-12-07T15:03:26.425Z,11.50
2022-12-07T15:05:56.891Z,11.50
2022-12-07T15:08:27.840Z,11.50
2022-12-07T15:10:58.115Z,11.40
2022-12-07T15:13:40.641Z,11.40
2022-12-07T15:16:14.028Z,11.30
2022-12-07T15:19:04.817Z,11.20
2022-12-07T15:21:38.504Z,12.60
2022-12-07T15:24:09.409Z,11.20
2022-12-07T15:26:39.609Z,10.80
2022-12-07T15:29:10.277Z,11.20
2022-12-07T15:31:56.011Z,11.10
2022-12-07T15:34:39.582Z,11.10
2022-12-07T15:37:11.268Z,11.10
2022-12-07T15:39:41.502Z,11.10
2022-12-07T15:42:11.936Z,12.30
2022-12-07T15:44:54.446Z,11.10
2022-12-07T15:47:24.774Z,10.90
2022-12-07T15:49:57.678Z,11.00
2022-12-07T15:52:28.001Z,11.00
2022-12-07T15:54:58.280Z,11.10
2022-12-07T15:57:28.516Z,11.00
2022-12-07T15:59:58.704Z,11.10
2022-12-07T16:02:31.971Z,11.20
2022-12-07T16:05:08.525Z,11.70
2022-12-07T16:07:38.744Z,11.00
2022-12-07T16:10:10.609Z,11.00
2022-12-07T16:12:40.703Z,10.90
2022-12-07T16:15:12.069Z,10.90
2022-12-07T16:17:42.088Z,10.90
2022-12-07T16:20:15.533Z,10.90
2022-12-07T16:22:45.666Z,10.70
2022-12-07T16:25:15.879Z,10.80
2022-12-07T16:27:45.952Z,11.10
2022-12-07T16:30:18.175Z,10.80
2022-12-07T16:32:48.500Z,10.80
2022-12-07T16:35:21.673Z,10.80
2022-12-07T16:37:51.723Z,10.50
2022-12-07T16:40:22.156Z,10.80
2022-12-07T16:42:52.372Z,10.90
2022-12-07T16:45:22.610Z,10.90
2022-12-07T16:47:52.751Z,10.90
2022-12-07T16:50:26.073Z,10.40
2022-12-07T16:52:56.386Z,10.90
2022-12-07T16:55:27.012Z,10.90
2022-12-07T16:57:57.413Z,10.80
2022-12-07T17:03:06.826Z,9.80
2022-12-07T17:05:42.027Z,10.80
2022-12-07T17:08:13.586Z,10.80
2022-12-07T17:10:46.452Z,10.50
2022-12-07T17:13:29.092Z,10.80
2022-12-07T17:16:01.655Z,10.80
2022-12-07T17:18:33.684Z,10.40
2022-12-07T17:21:10.605Z,10.80
2022-12-07T17:23:41.403Z,10.80
2022-12-07T17:26:14.960Z,10.70
2022-12-07T17:31:18.875Z,10.80
2022-12-07T17:33:49.370Z,10.80
2022-12-07T17:36:27.276Z,10.70
2022-12-07T17:38:57.398Z,10.70
2022-12-07T17:44:27.033Z,10.70
2022-12-07T17:46:59.329Z,10.70
2022-12-07T17:49:39.327Z,10.70
2022-12-07T17:52:25.311Z,10.70
2022-12-07T17:54:56.023Z,10.80
2022-12-07T17:57:26.362Z,10.70
2022-12-07T18:00:02.885Z,10.70
2022-12-07T18:05:22.775Z,10.70
2022-12-07T18:07:55.803Z,10.60
2022-12-07T18:10:25.982Z,10.80
2022-12-07T18:13:17.215Z,10.70
2022-12-07T18:15:47.458Z,10.70
2022-12-07T18:18:17.533Z,10.80
2022-12-07T18:20:47.772Z,10.80
2022-12-07T18:23:21.054Z,10.80
2022-12-07T18:25:51.992Z,10.80
2022-12-07T18:28:22.697Z,10.80
2022-12-07T18:33:45.184Z,10.70
2022-12-07T18:36:16.390Z,10.70
2022-12-07T18:38:49.235Z,11.50
2022-12-07T18:41:20.488Z,10.70
2022-12-07T18:43:51.017Z,10.70
2022-12-07T18:46:23.849Z,10.70
2022-12-07T18:48:54.076Z,10.70
2022-12-07T18:51:30.398Z,10.70
2022-12-07T18:54:04.946Z,10.70
2022-12-07T18:56:35.529Z,10.70
2022-12-07T18:59:20.201Z,10.60
2022-12-07T19:01:52.394Z,9.90
2022-12-07T19:04:22.779Z,10.30
2022-12-07T19:06:53.221Z,10.20
2022-12-07T19:09:25.876Z,10.20
2022-12-07T19:11:57.319Z,9.80
2022-12-07T19:14:29.928Z,9.60
2022-12-07T19:17:02.793Z,9.00
2022-12-07T19:19:35.749Z,9.50
2022-12-07T19:22:06.295Z,9.20
2022-12-07T19:24:39.377Z,9.50
2022-12-07T19:27:10.972Z,9.60
2022-12-07T19:29:41.122Z,9.60
2022-12-07T19:32:11.642Z,9.60
2022-12-07T19:34:44.060Z,9.50
2022-12-07T19:37:15.406Z,8.70
2022-12-07T19:39:48.545Z,9.60
2022-12-07T19:42:18.973Z,9.60
2022-12-07T19:44:49.160Z,9.70
2022-12-07T19:47:19.967Z,9.80
2022-12-07T19:49:50.160Z,10.00
2022-12-07T19:52:20.400Z,10.00
2022-12-07T19:54:53.097Z,10.00
2022-12-07T19:57:23.519Z,9.90
2022-12-07T19:59:53.569Z,9.80
2022-12-07T20:04:54.182Z,9.90
2022-12-07T20:09:57.185Z,9.40
2022-12-07T20:12:39.724Z,10.10
2022-12-07T20:15:10.804Z,9.30
2022-12-07T20:17:48.575Z,9.30
2022-12-07T20:20:18.709Z,9.30
2022-12-07T20:22:48.973Z,9.80
2022-12-07T20:25:21.837Z,9.00
2022-12-07T20:27:52.130Z,9.80
2022-12-07T20:30:22.518Z,9.30
2022-12-07T20:32:52.996Z,10.30
2022-12-07T20:37:53.495Z,9.40
2022-12-07T20:40:26.480Z,9.40
2022-12-07T20:45:24.359Z,9.40
2022-12-07T20:47:54.614Z,9.90
2022-12-07T20:50:25.608Z,9.90
2022-12-07T20:53:00.330Z,9.90
2022-12-07T20:55:33.330Z,9.50
2022-12-07T20:58:03.557Z,9.70
2022-12-07T21:00:33.714Z,9.80
2022-12-07T21:03:04.075Z,9.60
2022-12-07T21:05:35.341Z,9.60
2022-12-07T21:08:06.516Z,10.00
2022-12-07T21:10:39.216Z,9.40
2022-12-07T21:15:41.803Z,9.20
2022-12-07T21:18:12.060Z,9.40
2022-12-07T21:20:42.176Z,9.60
2022-12-07T21:23:12.384Z,8.40
2022-12-07T21:25:45.053Z,9.70
2022-12-07T21:28:15.187Z,9.70
2022-12-07T21:31:11.447Z,9.30
2022-12-07T21:33:36.610Z,9.60
2022-12-07T21:36:07.098Z,9.60
2022-12-07T21:38:37.765Z,9.90
2022-12-07T21:41:17.618Z,9.30
2022-12-07T21:43:48.177Z,9.70
2022-12-07T21:46:19.503Z,9.30
2022-12-07T21:48:52.736Z,9.30
2022-12-07T21:51:24.001Z,10.10
2022-12-07T21:53:56.817Z,10.30
2022-12-07T21:56:31.477Z,9.60
2022-12-07T21:59:04.503Z,8.90
2022-12-07T22:01:38.268Z,9.50
2022-12-07T22:04:09.559Z,9.40
2022-12-07T22:06:40.630Z,9.50
2022-12-07T22:09:10.755Z,9.50
2022-12-07T22:11:43.635Z,9.50
2022-12-07T22:14:35.019Z,9.60
2022-12-07T22:17:10.516Z,9.40
2022-12-07T22:19:40.813Z,9.40
2022-12-07T22:22:12.118Z,9.40
2022-12-07T22:24:42.200Z,9.60
2022-12-07T22:29:54.518Z,9.60
2022-12-07T22:32:47.735Z,9.00
2022-12-07T22:35:14.650Z,9.70
2022-12-07T22:37:44.671Z,9.70
2022-12-07T22:40:16.359Z,9.70
2022-12-07T22:42:49.528Z,9.80
2022-12-07T22:45:20.356Z,9.70
2022-12-07T22:47:52.833Z,9.50
2022-12-07T22:50:23.094Z,9.50
2022-12-07T22:52:53.156Z,8.00
2022-12-07T22:55:23.203Z,9.40
2022-12-07T22:57:55.867Z,9.50
2022-12-07T23:00:26.303Z,9.50
2022-12-07T23:02:56.547Z,9.20
2022-12-07T23:05:26.817Z,9.40
2022-12-07T23:07:57.064Z,9.70
2022-12-07T23:10:27.404Z,9.50
2022-12-07T23:13:12.428Z,9.50
2022-12-07T23:15:42.466Z,9.60
2022-12-07T23:18:12.527Z,10.50
2022-12-07T23:20:42.621Z,9.40
2022-12-07T23:23:12.634Z,9.30
2022-12-07T23:25:43.070Z,9.20
2022-12-07T23:28:15.739Z,9.30
2022-12-07T23:30:46.024Z,9.30
2022-12-07T23:33:16.141Z,9.20
2022-12-07T23:35:46.274Z,9.60
2022-12-07T23:38:16.344Z,9.30
2022-12-07T23:40:46.395Z,9.90
2022-12-07T23:43:19.162Z,9.40
2022-12-07T23:45:49.969Z,9.50
2022-12-07T23:48:20.269Z,9.60
2022-12-07T23:50:50.277Z,9.60
2022-12-07T23:53:22.721Z,9.20
2022-12-07T23:55:52.763Z,9.30
2022-12-07T23:58:28.596Z,9.40
